createdAt,value
2018-10-01T00:02:23.586Z,97728.52
2018-10-01T00:04:53.974Z,97726.38
2018-10-01T00:07:24.276Z,97723.43
2018-10-01T00:09:54.767Z,97727.81
2018-10-01T00:12:25.072Z,97723.29
2018-10-01T00:14:55.471Z,97723.69
2018-10-01T00:17:25.784Z,97722.39
2018-10-01T00:20:01.283Z,97719.80
2018-10-01T00:22:49.841Z,97716.63
2018-10-01T00:25:20.243Z,97723.72
2018-10-01T00:27:50.633Z,97716.92
2018-10-01T00:30:21.111Z,97720.53
2018-10-01T00:32:51.495Z,97720.62
2018-10-01T00:35:21.833Z,97714.23
2018-10-01T00:37:52.163Z,97714.36
2018-10-01T00:40:22.491Z,97714.04
2018-10-01T00:42:52.892Z,97707.33
2018-10-01T00:45:23.247Z,97708.42
2018-10-01T00:47:53.949Z,97711.99
2018-10-01T00:50:24.240Z,97709.12
2018-10-01T00:52:54.619Z,97705.23
2018-10-01T00:55:25.034Z,97699.91
2018-10-01T00:57:55.433Z,97700.30
2018-10-01T01:00:25.749Z,97700.50
2018-10-01T01:02:56.163Z,97707.53
2018-10-01T01:05:26.513Z,97696.05
2018-10-01T01:07:56.790Z,97694.79
2018-10-01T01:10:27.107Z,97686.27
2018-10-01T01:12:57.723Z,97681.30
2018-10-01T01:15:28.023Z,97681.91
2018-10-01T01:17:59.444Z,97686.92
2018-10-01T01:20:29.785Z,97687.01
2018-10-01T01:23:00.131Z,97687.70
2018-10-01T01:25:30.556Z,97693.77
2018-10-01T01:28:00.840Z,97692.47
2018-10-01T01:30:31.211Z,97688.99
2018-10-01T01:33:01.545Z,97689.71
2018-10-01T01:35:31.845Z,97685.58
2018-10-01T01:38:02.161Z,97681.33
2018-10-01T01:40:32.499Z,97685.76
2018-10-01T01:43:03.251Z,97680.59
2018-10-01T01:45:33.529Z,97673.19
2018-10-01T01:48:06.803Z,97676.27
2018-10-01T01:50:37.174Z,97684.03
2018-10-01T01:53:09.891Z,97675.94
2018-10-01T01:55:41.056Z,97663.16
2018-10-01T01:58:19.291Z,97664.30
2018-10-01T02:00:50.707Z,97658.54
2018-10-01T02:03:20.985Z,97662.83
2018-10-01T02:05:51.284Z,97659.94
2018-10-01T02:08:21.694Z,97665.77
2018-10-01T02:10:56.194Z,97663.44
2018-10-01T02:13:27.079Z,97662.70
2018-10-01T02:15:57.458Z,97669.35
2018-10-01T02:18:27.913Z,97652.34
2018-10-01T02:20:59.937Z,97648.27
2018-10-01T02:23:30.433Z,97643.38
2018-10-01T02:26:00.843Z,97646.97
2018-10-01T02:28:31.182Z,97651.25
2018-10-01T02:31:01.653Z,97640.88
2018-10-01T02:33:32.203Z,97650.33
2018-10-01T02:36:02.559Z,97649.95
2018-10-01T02:38:34.379Z,97646.52
2018-10-01T02:41:04.941Z,97650.06
2018-10-01T02:43:37.193Z,97641.18
2018-10-01T02:46:09.225Z,97646.31
2018-10-01T02:48:39.559Z,97640.89
2018-10-01T02:51:09.910Z,97648.56
2018-10-01T02:53:46.642Z,97645.07
2018-10-01T02:56:17.027Z,97637.00
2018-10-01T02:58:47.520Z,97640.58
2018-10-01T03:01:17.910Z,97636.30
2018-10-01T03:03:48.237Z,97642.19
2018-10-01T03:06:18.755Z,97633.50
2018-10-01T03:08:49.187Z,97633.11
2018-10-01T03:11:19.584Z,97632.72
2018-10-01T03:13:50.274Z,97631.90
2018-10-01T03:16:20.604Z,97629.75
2018-10-01T03:18:51.045Z,97636.69
2018-10-01T03:21:21.442Z,97637.45
2018-10-01T03:23:53.691Z,97637.84
2018-10-01T03:26:24.284Z,97631.05
2018-10-01T03:28:58.566Z,97638.44
2018-10-01T03:31:28.919Z,97635.61
2018-10-01T03:33:59.436Z,97633.95
2018-10-01T03:36:29.820Z,97633.86
2018-10-01T03:39:00.160Z,97641.53
2018-10-01T03:41:30.992Z,97640.29
2018-10-01T03:44:01.336Z,97639.79
2018-10-01T03:46:31.672Z,97640.50
2018-10-01T03:49:02.894Z,97646.87
2018-10-01T03:51:33.210Z,97644.93
2018-10-01T03:54:03.513Z,97641.38
2018-10-01T03:56:38.173Z,97639.13
2018-10-01T03:59:10.443Z,97625.96
2018-10-01T04:01:40.815Z,97627.09
2018-10-01T04:04:11.266Z,97626.84
2018-10-01T04:06:42.449Z,97631.32
2018-10-01T04:09:12.810Z,97632.81
2018-10-01T04:11:43.174Z,97625.23
2018-10-01T04:14:13.538Z,97627.56
2018-10-01T04:16:43.850Z,97629.50
2018-10-01T04:19:14.154Z,97621.99
2018-10-01T04:21:44.508Z,97620.16
2018-10-01T04:24:14.800Z,97624.44
2018-10-01T04:26:46.840Z,97622.75
2018-10-01T04:29:17.196Z,97626.73
2018-10-01T04:31:50.708Z,97632.10
2018-10-01T04:34:21.031Z,97632.36
2018-10-01T04:36:51.397Z,97629.42
2018-10-01T04:39:21.954Z,97629.97
2018-10-01T04:41:53.040Z,97633.98
2018-10-01T04:44:23.851Z,97643.77
2018-10-01T04:46:54.172Z,97652.94
2018-10-01T04:49:24.532Z,97660.41
2018-10-01T04:51:54.871Z,97664.36
2018-10-01T04:54:25.318Z,97670.80
2018-10-01T04:56:55.790Z,97668.25
2018-10-01T04:59:26.094Z,97671.30
2018-10-01T05:01:59.375Z,97662.14
2018-10-01T05:04:31.539Z,97674.55
2018-10-01T05:07:09.836Z,97675.70
2018-10-01T05:09:50.930Z,97669.72
2018-10-01T05:12:23.072Z,97678.50
2018-10-01T05:14:53.404Z,97678.45
2018-10-01T05:17:26.258Z,97686.09
2018-10-01T05:19:56.934Z,97680.39
2018-10-01T05:22:27.382Z,97688.98
2018-10-01T05:24:58.242Z,97689.73
2018-10-01T05:27:28.622Z,97684.94
2018-10-01T05:29:59.037Z,97684.03
2018-10-01T05:32:29.359Z,97684.37
2018-10-01T05:35:00.583Z,97684.26
2018-10-01T05:37:30.976Z,97689.36
2018-10-01T05:40:01.441Z,97691.34
2018-10-01T05:42:31.796Z,97702.58
2018-10-01T05:45:02.161Z,97699.44
2018-10-01T05:47:32.464Z,97706.27
2018-10-01T05:50:02.831Z,97699.33
2018-10-01T05:52:33.242Z,97706.16
2018-10-01T05:55:03.695Z,97710.44
2018-10-01T05:57:34.115Z,97712.27
2018-10-01T06:00:04.600Z,97718.19
2018-10-01T06:02:35.207Z,97718.19
2018-10-01T06:05:05.864Z,97722.94
2018-10-01T06:07:36.303Z,97726.69
2018-10-01T06:10:07.461Z,97728.00
2018-10-01T06:12:37.855Z,97735.86
2018-10-01T06:15:08.245Z,97738.13
2018-10-01T06:17:38.609Z,97738.86
2018-10-01T06:20:09.015Z,97749.56
2018-10-01T06:22:39.524Z,97747.63
2018-10-01T06:25:10.031Z,97742.22
2018-10-01T06:27:40.365Z,97747.54
2018-10-01T06:30:10.745Z,97751.44
2018-10-01T06:32:46.075Z,97750.13
2018-10-01T06:35:16.417Z,97750.64
2018-10-01T06:37:46.721Z,97758.42
2018-10-01T06:40:17.925Z,97758.93
2018-10-01T06:42:55.543Z,97761.77
2018-10-01T06:45:25.971Z,97763.34
2018-10-01T06:47:56.440Z,97772.84
2018-10-01T06:50:26.962Z,97773.06
2018-10-01T06:52:57.322Z,97773.69
2018-10-01T06:55:27.696Z,97790.36
2018-10-01T06:57:58.141Z,97786.52
2018-10-01T07:00:28.545Z,97797.95
2018-10-01T07:03:02.672Z,97795.19
2018-10-01T07:05:34.089Z,97806.03
2018-10-01T07:08:04.335Z,97804.83
2018-10-01T07:10:35.544Z,97798.99
2018-10-01T07:13:06.546Z,97809.90
2018-10-01T07:15:38.364Z,97811.38
2018-10-01T07:18:08.395Z,97810.41
2018-10-01T07:20:38.730Z,97815.26
2018-10-01T07:23:09.668Z,97819.55
2018-10-01T07:25:40.656Z,97813.20
2018-10-01T07:28:11.344Z,97815.42
2018-10-01T07:30:43.057Z,97823.18
2018-10-01T07:33:14.646Z,97825.92
2018-10-01T07:35:45.382Z,97819.86
2018-10-01T07:38:16.220Z,97825.71
2018-10-01T07:40:46.440Z,97827.10
2018-10-01T07:43:18.052Z,97821.39
2018-10-01T07:45:49.206Z,97827.38
2018-10-01T07:48:20.112Z,97826.85
2018-10-01T07:50:50.535Z,97837.19
2018-10-01T07:53:21.513Z,97835.35
2018-10-01T07:55:52.041Z,97839.53
2018-10-01T07:58:22.369Z,97846.83
2018-10-01T08:00:53.640Z,97854.41
2018-10-01T08:03:24.098Z,97856.09
2018-10-01T08:05:54.112Z,97852.11
2018-10-01T08:08:25.581Z,97854.54
2018-10-01T08:10:57.052Z,97842.82
2018-10-01T08:13:27.609Z,97861.84
2018-10-01T08:15:58.851Z,97858.94
2018-10-01T08:18:30.562Z,97866.78
2018-10-01T08:21:02.353Z,97862.39
2018-10-01T08:23:33.537Z,97865.41
2018-10-01T08:26:04.496Z,97865.75
2018-10-01T08:28:36.341Z,97867.82
2018-10-01T08:31:07.474Z,97870.55
2018-10-01T08:33:38.602Z,97882.86
2018-10-01T08:36:09.260Z,97875.05
2018-10-01T08:38:43.160Z,97878.32
2018-10-01T08:41:14.849Z,97878.24
2018-10-01T08:43:45.488Z,97876.11
2018-10-01T08:46:17.139Z,97878.06
2018-10-01T08:48:54.288Z,97874.97
2018-10-01T08:51:32.523Z,97881.87
2018-10-01T08:54:08.184Z,97887.16
2018-10-01T08:56:38.524Z,97878.41
2018-10-01T08:59:09.963Z,97879.23
2018-10-01T09:01:40.134Z,97877.27
2018-10-01T09:04:11.470Z,97876.83
2018-10-01T09:06:42.487Z,97886.78
2018-10-01T09:09:14.448Z,97888.03
2018-10-01T09:11:46.004Z,97893.24
2018-10-01T09:14:18.095Z,97890.05
2018-10-01T09:16:48.430Z,97883.61
2018-10-01T09:19:19.481Z,97893.32
2018-10-01T09:21:50.522Z,97892.34
2018-10-01T09:24:22.348Z,97893.44
2018-10-01T09:26:53.026Z,97889.90
2018-10-01T09:29:24.167Z,97894.92
2018-10-01T09:31:54.270Z,97899.45
2018-10-01T09:34:25.600Z,97890.94
2018-10-01T09:36:55.830Z,97890.78
2018-10-01T09:39:26.380Z,97896.90
2018-10-01T09:41:57.403Z,97897.72
2018-10-01T09:44:28.207Z,97908.82
2018-10-01T09:46:58.517Z,97904.39
2018-10-01T09:49:29.230Z,97902.45
2018-10-01T09:52:00.700Z,97908.90
2018-10-01T09:54:31.551Z,97908.82
2018-10-01T09:57:01.861Z,97902.84
2018-10-01T09:59:32.463Z,97905.83
2018-10-01T10:02:03.257Z,97909.36
2018-10-01T10:04:35.037Z,97909.95
2018-10-01T10:07:05.041Z,97913.45
2018-10-01T10:09:36.264Z,97907.83
2018-10-01T10:12:08.045Z,97914.64
2018-10-01T10:14:39.271Z,97916.78
2018-10-01T10:17:09.575Z,97923.41
2018-10-01T10:19:41.477Z,97923.22
2018-10-01T10:22:13.228Z,97929.09
2018-10-01T10:24:43.896Z,97925.26
2018-10-01T10:27:14.970Z,97933.89
2018-10-01T10:29:46.187Z,97928.50
2018-10-01T10:32:16.816Z,97940.46
2018-10-01T10:34:47.725Z,97936.48
2018-10-01T10:37:18.396Z,97936.52
2018-10-01T10:39:49.275Z,97935.48
2018-10-01T10:42:19.919Z,97932.02
2018-10-01T10:44:51.068Z,97935.84
2018-10-01T10:47:22.307Z,97944.47
2018-10-01T10:49:53.467Z,97950.92
2018-10-01T10:52:26.013Z,97943.69
2018-10-01T10:54:57.145Z,97945.92
2018-10-01T10:57:27.904Z,97945.23
2018-10-01T10:59:57.975Z,97949.76
2018-10-01T11:02:29.555Z,97942.25
2018-10-01T11:05:00.543Z,97955.95
2018-10-01T11:07:31.351Z,97947.91
2018-10-01T11:10:01.651Z,97950.94
2018-10-01T11:12:32.021Z,97952.92
2018-10-01T11:15:06.593Z,97953.47
2018-10-01T11:17:37.462Z,97949.13
2018-10-01T11:20:09.045Z,97952.06
2018-10-01T11:22:39.521Z,97955.08
2018-10-01T11:25:13.016Z,97951.23
2018-10-01T11:27:45.512Z,97955.56
2018-10-01T11:30:16.776Z,97958.55
2018-10-01T11:32:46.825Z,97958.72
2018-10-01T11:35:19.535Z,97955.47
2018-10-01T11:37:51.167Z,97968.41
2018-10-01T11:40:24.235Z,97957.67
2018-10-01T11:42:55.495Z,97963.30
2018-10-01T11:45:26.208Z,97965.53
2018-10-01T11:47:56.925Z,97957.20
2018-10-01T11:50:31.834Z,97961.95
2018-10-01T11:53:02.668Z,97963.56
2018-10-01T11:55:32.817Z,97969.41
2018-10-01T11:58:03.419Z,97975.75
2018-10-01T12:00:35.794Z,97971.50
2018-10-01T12:03:06.227Z,97971.88
2018-10-01T12:05:38.133Z,97971.53
2018-10-01T12:08:08.470Z,97974.89
2018-10-01T12:10:42.103Z,97968.30
2018-10-01T12:13:14.484Z,97958.45
2018-10-01T12:15:45.327Z,97976.77
2018-10-01T12:18:15.500Z,97979.09
2018-10-01T12:20:47.714Z,97973.09
2018-10-01T12:23:18.331Z,97974.16
2018-10-01T12:25:48.634Z,97970.66
2018-10-01T12:28:18.869Z,97974.70
2018-10-01T12:30:53.067Z,97976.08
2018-10-01T12:33:24.214Z,97984.97
2018-10-01T12:38:30.836Z,97989.05
2018-10-01T12:41:00.968Z,97984.72
2018-10-01T12:43:32.641Z,97987.09
2018-10-01T12:46:03.855Z,97991.33
2018-10-01T12:48:34.060Z,97984.83
2018-10-01T12:51:04.271Z,97979.78
2018-10-01T12:53:34.985Z,97988.12
2018-10-01T12:56:06.434Z,97984.74
2018-10-01T12:58:37.619Z,97995.27
2018-10-01T13:01:07.756Z,98000.38
2018-10-01T13:03:38.889Z,97999.75
2018-10-01T13:06:10.935Z,97990.44
2018-10-01T13:08:41.300Z,97992.45
2018-10-01T13:11:12.169Z,97989.84
2018-10-01T13:13:44.682Z,97989.13
2018-10-01T13:16:17.196Z,97995.70
2018-10-01T13:18:48.612Z,98006.88
2018-10-01T13:21:18.681Z,98004.25
2018-10-01T13:23:51.042Z,98003.49
2018-10-01T13:26:21.185Z,98001.11
2018-10-01T13:28:58.195Z,97994.88
2018-10-01T13:31:28.828Z,98004.58
2018-10-01T13:34:01.826Z,98000.80
2018-10-01T13:36:34.539Z,98007.33
2018-10-01T13:39:08.149Z,98008.11
2018-10-01T13:41:40.741Z,98005.32
2018-10-01T13:44:11.922Z,98009.23
2018-10-01T13:46:44.187Z,98017.00
2018-10-01T13:49:15.607Z,97998.25
2018-10-01T13:51:47.353Z,98013.69
2018-10-01T13:54:17.524Z,97999.02
2018-10-01T13:56:49.362Z,98006.55
2018-10-01T13:59:19.616Z,98005.34
2018-10-01T14:01:51.465Z,98009.27
2018-10-01T14:04:21.648Z,98003.15
2018-10-01T14:06:52.897Z,97995.73
2018-10-01T14:09:23.553Z,98000.09
2018-10-01T14:11:55.036Z,98001.19
2018-10-01T14:14:26.394Z,97998.08
2018-10-01T14:17:00.621Z,98011.66
2018-10-01T14:19:30.914Z,97997.77
2018-10-01T14:22:02.319Z,98005.05
2018-10-01T14:24:36.243Z,97997.70
2018-10-01T14:27:07.648Z,98002.42
2018-10-01T14:29:37.851Z,98014.59
2018-10-01T14:32:08.919Z,98007.05
2018-10-01T14:34:40.043Z,98009.45
2018-10-01T14:37:12.029Z,98011.07
2018-10-01T14:39:45.728Z,98014.33
2018-10-01T14:42:16.915Z,98010.24
2018-10-01T14:44:47.314Z,98015.09
2018-10-01T14:47:17.859Z,98009.39
2018-10-01T14:49:48.803Z,98020.23
2018-10-01T14:52:20.353Z,98015.95
2018-10-01T14:54:51.670Z,98024.84
2018-10-01T14:57:22.459Z,98026.25
2018-10-01T14:59:53.258Z,98024.63
2018-10-01T15:02:23.983Z,98036.62
2018-10-01T15:04:54.852Z,98033.57
2018-10-01T15:07:25.740Z,98023.69
2018-10-01T15:09:57.058Z,98034.41
2018-10-01T15:12:28.777Z,98032.02
2018-10-01T15:14:59.603Z,98037.27
2018-10-01T15:17:29.974Z,98048.90
2018-10-01T15:20:00.966Z,98039.16
2018-10-01T15:22:32.340Z,98051.30
2018-10-01T15:25:03.472Z,98045.59
2018-10-01T15:27:34.590Z,98042.94
2018-10-01T15:30:07.838Z,98041.98
2018-10-01T15:32:38.313Z,98045.45
2018-10-01T15:35:09.821Z,98046.12
2018-10-01T15:37:40.251Z,98051.56
2018-10-01T15:40:11.515Z,98067.33
2018-10-01T15:42:42.225Z,98061.85
2018-10-01T15:45:12.516Z,98069.28
2018-10-01T15:47:43.081Z,98068.43
2018-10-01T15:50:16.181Z,98067.23
2018-10-01T15:52:48.219Z,98078.62
2018-10-01T15:55:18.313Z,98077.98
2018-10-01T15:57:49.451Z,98082.55
2018-10-01T16:00:20.634Z,98087.90
2018-10-01T16:02:51.253Z,98087.23
2018-10-01T16:05:22.046Z,98083.64
2018-10-01T16:07:53.459Z,98089.10
2018-10-01T16:10:24.849Z,98080.42
2018-10-01T16:12:56.118Z,98095.37
2018-10-01T16:15:27.277Z,98099.85
2018-10-01T16:17:58.700Z,98101.34
2018-10-01T16:20:29.561Z,98105.41
2018-10-01T16:22:59.676Z,98099.86
2018-10-01T16:25:30.664Z,98112.57
2018-10-01T16:28:01.911Z,98118.99
2018-10-01T16:30:32.074Z,98119.02
2018-10-01T16:33:02.355Z,98117.84
2018-10-01T16:35:33.519Z,98115.92
2018-10-01T16:38:04.636Z,98115.12
2018-10-01T16:40:36.696Z,98118.56
2018-10-01T16:43:07.707Z,98122.94
2018-10-01T16:48:33.167Z,98131.14
2018-10-01T16:51:05.735Z,98139.17
2018-10-01T16:53:41.895Z,98147.16
2018-10-01T16:56:12.524Z,98140.70
2018-10-01T16:58:43.126Z,98155.00
2018-10-01T17:01:14.733Z,98155.98
2018-10-01T17:03:46.436Z,98170.30
2018-10-01T17:06:16.878Z,98192.39
2018-10-01T17:08:47.323Z,98189.74
2018-10-01T17:11:17.642Z,98187.44
2018-10-01T17:13:47.938Z,98185.62
2018-10-01T17:16:17.993Z,98195.48
2018-10-01T17:18:48.050Z,98194.28
2018-10-01T17:21:18.133Z,98195.90
2018-10-01T17:23:48.402Z,98200.87
2018-10-01T17:26:18.585Z,98204.31
2018-10-01T17:28:48.795Z,98205.65
2018-10-01T17:31:18.851Z,98202.92
2018-10-01T17:33:48.866Z,98204.86
2018-10-01T17:36:19.800Z,98205.17
2018-10-01T17:38:50.080Z,98211.17
2018-10-01T17:41:20.229Z,98211.57
2018-10-01T17:43:50.653Z,98208.55
2018-10-01T17:46:21.117Z,98219.64
2018-10-01T17:48:51.261Z,98216.64
2018-10-01T17:51:21.395Z,98214.58
2018-10-01T17:53:51.913Z,98228.73
2018-10-01T17:56:22.384Z,98236.41
2018-10-01T17:58:53.227Z,98238.38
2018-10-01T18:01:23.297Z,98241.50
2018-10-01T18:03:53.345Z,98247.70
2018-10-01T18:06:24.098Z,98258.61
2018-10-01T18:08:54.352Z,98258.43
2018-10-01T18:11:24.369Z,98259.19
2018-10-01T18:13:54.430Z,98267.26
2018-10-01T18:16:24.888Z,98278.37
2018-10-01T18:18:56.036Z,98284.61
2018-10-01T18:21:26.590Z,98292.67
2018-10-01T18:23:57.012Z,98295.48
2018-10-01T18:26:27.387Z,98286.59
2018-10-01T18:28:57.409Z,98295.33
2018-10-01T18:31:27.517Z,98296.09
2018-10-01T18:33:57.692Z,98298.65
2018-10-01T18:36:28.131Z,98300.39
2018-10-01T18:38:58.296Z,98298.65
2018-10-01T18:41:28.461Z,98304.70
2018-10-01T18:43:58.561Z,98316.39
2018-10-01T18:46:28.669Z,98312.54
2018-10-01T18:48:58.720Z,98314.33
2018-10-01T18:51:28.795Z,98315.19
2018-10-01T18:53:59.152Z,98324.04
2018-10-01T18:56:29.177Z,98326.64
2018-10-01T18:58:59.668Z,98327.62
2018-10-01T19:01:29.984Z,98328.11
2018-10-01T19:04:00.070Z,98328.96
2018-10-01T19:06:30.688Z,98338.05
2018-10-01T19:09:01.947Z,98331.43
2018-10-01T19:11:32.718Z,98338.22
2018-10-01T19:14:03.133Z,98340.69
2018-10-01T19:16:33.193Z,98348.32
2018-10-01T19:19:03.445Z,98339.78
2018-10-01T19:21:34.787Z,98347.28
2018-10-01T19:24:05.263Z,98350.13
2018-10-01T19:26:35.449Z,98347.02
2018-10-01T19:29:05.509Z,98352.18
2018-10-01T19:31:35.756Z,98354.26
2018-10-01T19:34:05.918Z,98357.30
2018-10-01T19:36:37.432Z,98362.59
2018-10-01T19:39:09.692Z,98363.03
2018-10-01T19:41:39.891Z,98371.38
2018-10-01T19:44:10.011Z,98372.22
2018-10-01T19:46:40.284Z,98379.13
2018-10-01T19:49:10.308Z,98379.22
2018-10-01T19:51:40.536Z,98383.73
2018-10-01T19:54:10.696Z,98391.69
2018-10-01T19:56:40.875Z,98393.73
2018-10-01T19:59:11.042Z,98399.94
2018-10-01T20:01:41.115Z,98401.79
2018-10-01T20:04:11.168Z,98404.80
2018-10-01T20:06:41.309Z,98407.70
2018-10-01T20:09:13.007Z,98410.08
2018-10-01T20:11:43.264Z,98408.89
2018-10-01T20:14:13.338Z,98422.17
2018-10-01T20:16:43.431Z,98422.63
2018-10-01T20:19:13.521Z,98428.41
2018-10-01T20:21:44.446Z,98436.98
2018-10-01T20:24:15.256Z,98433.63
2018-10-01T20:26:46.044Z,98434.97
2018-10-01T20:29:16.350Z,98436.38
2018-10-01T20:31:46.397Z,98433.41
2018-10-01T20:34:16.522Z,98430.47
2018-10-01T20:36:46.579Z,98432.25
2018-10-01T20:39:16.762Z,98430.20
2018-10-01T20:41:46.785Z,98432.43
2018-10-01T20:44:16.899Z,98429.59
2018-10-01T20:46:47.035Z,98431.61
2018-10-01T20:49:17.110Z,98428.30
2018-10-01T20:51:47.232Z,98428.47
2018-10-01T20:54:17.529Z,98436.52
2018-10-01T20:56:47.722Z,98433.55
2018-10-01T20:59:17.971Z,98434.34
2018-10-01T21:01:48.210Z,98438.13
2018-10-01T21:04:18.267Z,98440.22
2018-10-01T21:06:48.380Z,98443.63
2018-10-01T21:09:18.461Z,98448.31
2018-10-01T21:11:48.540Z,98446.98
2018-10-01T21:14:18.676Z,98452.09
2018-10-01T21:16:49.480Z,98461.05
2018-10-01T21:19:20.037Z,98460.98
2018-10-01T21:21:50.419Z,98467.88
2018-10-01T21:24:20.626Z,98476.07
2018-10-01T21:26:50.848Z,98476.17
2018-10-01T21:29:21.643Z,98482.25
2018-10-01T21:31:51.796Z,98475.80
2018-10-01T21:34:21.852Z,98469.89
2018-10-01T21:36:52.003Z,98470.84
2018-10-01T21:39:30.558Z,98469.98
2018-10-01T21:42:00.697Z,98479.20
2018-10-01T21:44:30.752Z,98477.55
2018-10-01T21:47:00.872Z,98470.39
2018-10-01T21:49:30.931Z,98467.19
2018-10-01T21:52:01.032Z,98471.67
2018-10-01T21:54:31.199Z,98475.80
2018-10-01T21:57:01.264Z,98479.35
2018-10-01T21:59:31.366Z,98482.49
2018-10-01T22:02:01.530Z,98480.20
2018-10-01T22:04:31.646Z,98486.98
2018-10-01T22:07:01.830Z,98488.50
2018-10-01T22:09:31.969Z,98486.06
2018-10-01T22:12:02.137Z,98498.42
2018-10-01T22:14:32.213Z,98495.22
2018-10-01T22:17:02.338Z,98495.93
2018-10-01T22:19:32.395Z,98498.52
2018-10-01T22:22:02.492Z,98500.73
2018-10-01T22:24:32.913Z,98504.80
2018-10-01T22:27:03.094Z,98509.23
2018-10-01T22:29:33.299Z,98508.41
2018-10-01T22:32:03.379Z,98509.91
2018-10-01T22:34:35.758Z,98516.08
2018-10-01T22:37:06.230Z,98510.54
2018-10-01T22:39:36.670Z,98511.97
2018-10-01T22:42:06.740Z,98508.97
2018-10-01T22:44:36.808Z,98500.56
2018-10-01T22:47:06.934Z,98506.91
2018-10-01T22:49:37.244Z,98505.91
2018-10-01T22:52:08.290Z,98506.34
2018-10-01T22:54:38.537Z,98511.67
2018-10-01T22:57:08.632Z,98509.24
2018-10-01T22:59:39.718Z,98507.28
2018-10-01T23:02:09.760Z,98510.03
2018-10-01T23:04:39.937Z,98515.40
2018-10-01T23:07:10.124Z,98518.14
2018-10-01T23:09:40.190Z,98518.27
2018-10-01T23:12:10.351Z,98524.84
2018-10-01T23:14:40.643Z,98525.70
2018-10-01T23:17:10.888Z,98523.14
2018-10-01T23:19:40.971Z,98520.05
2018-10-01T23:22:11.126Z,98523.50
2018-10-01T23:24:41.191Z,98518.71
2018-10-01T23:27:12.434Z,98522.16
2018-10-01T23:29:42.502Z,98520.91
2018-10-01T23:32:12.798Z,98532.12
2018-10-01T23:34:42.834Z,98534.27
2018-10-01T23:37:12.978Z,98534.30
2018-10-01T23:39:42.988Z,98541.33
2018-10-01T23:42:13.608Z,98544.52
2018-10-01T23:44:43.711Z,98550.38
2018-10-01T23:47:13.780Z,98545.80
2018-10-01T23:49:44.050Z,98549.70
2018-10-01T23:52:14.186Z,98541.55
2018-10-01T23:54:44.291Z,98544.08
2018-10-01T23:57:14.456Z,98550.91
2018-10-01T23:59:44.610Z,98544.89
